KGCK/GCK METAR and TAF weather

Enter ICAO airport designator
Station Type Date Time Source
KGCK METAR 2021/09/23 17:54 UTC NOAA

KGCK 231754Z 20014G21KT 10SM CLR 27/06 A3001 RMK AO2 SLP135 T02670056 10267 20100 58012


Station Type Date Time Source
KGCK Decoded METAR 2021/09/23 17:54 UTC NOAA

GARDEN CITY REGIONAL AIRPORT, KS, United States (KGCK) 37-55N 100-43W 877M
Sep 23, 2021 - 01:54 PM EDT / 2021.09.23 1754 UTC
Wind: from the SSW (200 degrees) at 16 MPH (14 KT) gusting to 24 MPH (21 KT):0
Visibility: 10 mile(s):0
Sky conditions: clear
Temperature: 80.1 F (26.7 C)
Dew Point: 42.1 F (5.6 C)
Relative Humidity: 25%
Pressure (altimeter): 30.01 in. Hg (1016 hPa)
Pressure tendency: 0.04 inches (1.2 hPa) lower than three hours ago
ob: KGCK 231754Z 20014G21KT 10SM CLR 27/06 A3001 RMK AO2 SLP135 T02670056 10267 20100 58012
cycle: 18

Station Type Date Time Source
KGCK TAF 2021/09/23 18:22 UTC NOAA

TAF KGCK 231720Z 2318/2418 21015G25KT P6SM SKC
FM240000 22010KT P6SM BKN250

Example: see airport list